createdAt,value
2023-03-22T00:01:43.674Z,97077.98
2023-03-22T00:04:11.920Z,97073.89
2023-03-22T00:06:40.251Z,97071.35
2023-03-22T00:09:08.059Z,97067.83
2023-03-22T00:11:35.838Z,97068.84
2023-03-22T00:14:03.664Z,97065.26
2023-03-22T00:16:31.537Z,97065.82
2023-03-22T00:18:59.423Z,97066.33
2023-03-22T00:21:27.234Z,97061.73
2023-03-22T00:23:55.055Z,97059.98
2023-03-22T00:26:22.932Z,97055.36
2023-03-22T00:28:50.885Z,97054.94
2023-03-22T00:31:19.999Z,97054.80
2023-03-22T00:33:47.859Z,97053.89
2023-03-22T00:36:15.686Z,97052.46
2023-03-22T00:38:44.519Z,97052.87
2023-03-22T00:41:19.419Z,97048.91
2023-03-22T00:43:48.698Z,97051.18
2023-03-22T00:46:19.295Z,97049.88
2023-03-22T00:48:48.502Z,97054.84
2023-03-22T00:51:17.061Z,97052.75
2023-03-22T00:53:45.468Z,97051.81
2023-03-22T00:56:14.368Z,97047.66
2023-03-22T00:58:43.085Z,97047.54
2023-03-22T01:01:14.629Z,97042.92
2023-03-22T01:03:43.958Z,97042.11
2023-03-22T01:06:12.111Z,97042.48
2023-03-22T01:08:40.447Z,97044.59
2023-03-22T01:11:09.426Z,97043.95
2023-03-22T01:13:38.566Z,97045.48
2023-03-22T01:16:07.550Z,97042.18
2023-03-22T01:18:36.444Z,97041.16
2023-03-22T01:21:04.640Z,97039.05
2023-03-22T01:23:32.923Z,97038.96
2023-03-22T01:26:01.521Z,97036.65
2023-03-22T01:28:30.275Z,97037.14
2023-03-22T01:31:01.704Z,97037.55
2023-03-22T01:33:30.195Z,97037.54
2023-03-22T01:35:58.185Z,97036.80
2023-03-22T01:38:26.240Z,97037.11
2023-03-22T01:40:54.018Z,97038.69
2023-03-22T01:43:21.925Z,97038.98
2023-03-22T01:45:51.605Z,97041.80
2023-03-22T01:48:36.453Z,97039.88
2023-03-22T01:51:06.531Z,97038.13
2023-03-22T01:53:41.123Z,97040.55
2023-03-22T01:56:10.815Z,97041.48
2023-03-22T01:58:40.627Z,97044.99
2023-03-22T02:01:09.980Z,97039.89
2023-03-22T02:03:48.800Z,97036.10
2023-03-22T02:06:18.592Z,97032.31
2023-03-22T02:08:46.933Z,97034.34
2023-03-22T02:11:18.008Z,97038.55
2023-03-22T02:13:53.906Z,97039.89
2023-03-22T02:16:21.731Z,97038.45
2023-03-22T02:19:01.619Z,97036.05
2023-03-22T02:22:15.726Z,97037.11
2023-03-22T02:25:12.655Z,97039.16
2023-03-22T02:28:37.910Z,97034.63
2023-03-22T02:31:30.005Z,97038.60
2023-03-22T02:34:10.511Z,97041.90
2023-03-22T02:37:12.940Z,97042.70
2023-03-22T02:39:59.204Z,97049.15
2023-03-22T02:42:50.000Z,97047.58
2023-03-22T02:45:39.765Z,97044.91
2023-03-22T02:48:17.044Z,97049.74
2023-03-22T02:51:10.637Z,97053.77
2023-03-22T02:53:43.425Z,97054.19
2023-03-22T02:56:56.520Z,97056.98
2023-03-22T02:59:27.016Z,97056.02
2023-03-22T03:01:58.998Z,97056.02
2023-03-22T03:04:35.623Z,97058.88
2023-03-22T03:07:09.914Z,97059.64
2023-03-22T03:09:40.315Z,97062.65
2023-03-22T03:12:19.387Z,97061.38
2023-03-22T03:14:48.122Z,97064.33
2023-03-22T03:17:53.490Z,97062.97
2023-03-22T03:20:30.448Z,97061.70
2023-03-22T03:23:29.196Z,97067.02
2023-03-22T03:25:59.161Z,97067.25
2023-03-22T03:28:39.856Z,97065.70
2023-03-22T03:31:16.957Z,97069.11
2023-03-22T03:33:55.844Z,97069.04
2023-03-22T03:36:26.187Z,97064.61
2023-03-22T03:38:55.302Z,97066.48
2023-03-22T03:41:28.198Z,97068.14
2023-03-22T03:43:58.487Z,97067.36
2023-03-22T03:46:27.856Z,97067.50
2023-03-22T03:48:58.062Z,97071.23
2023-03-22T03:51:28.042Z,97069.52
2023-03-22T03:53:56.022Z,97071.04
2023-03-22T03:56:24.080Z,97068.70
2023-03-22T03:58:52.078Z,97071.15
2023-03-22T04:01:20.787Z,97067.36
2023-03-22T04:03:50.817Z,97067.86
2023-03-22T04:06:18.931Z,97068.84
2023-03-22T04:08:53.564Z,97071.79
2023-03-22T04:11:21.476Z,97071.08
2023-03-22T04:13:49.956Z,97070.85
2023-03-22T04:16:17.981Z,97073.02
2023-03-22T04:18:46.229Z,97074.23
2023-03-22T04:21:16.642Z,97080.77
2023-03-22T04:23:46.862Z,97083.91
2023-03-22T04:26:15.380Z,97090.02
2023-03-22T04:28:45.499Z,97090.48
2023-03-22T04:31:13.534Z,97092.83
2023-03-22T04:33:41.514Z,97098.27
2023-03-22T04:36:17.389Z,97097.79
2023-03-22T04:38:45.306Z,97100.48
2023-03-22T04:41:14.582Z,97101.06
2023-03-22T04:43:47.890Z,97098.88
2023-03-22T04:46:18.063Z,97099.20
2023-03-22T04:48:45.975Z,97104.77
2023-03-22T04:51:13.836Z,97102.59
2023-03-22T04:53:41.798Z,97103.63
2023-03-22T04:56:12.826Z,97104.77
2023-03-22T04:58:42.535Z,97105.89
2023-03-22T05:01:12.549Z,97110.08
2023-03-22T05:03:41.323Z,97113.27
2023-03-22T05:06:10.457Z,97112.20
2023-03-22T05:08:38.464Z,97110.39
2023-03-22T05:11:17.445Z,97115.10
2023-03-22T05:13:45.713Z,97114.33
2023-03-22T05:16:16.782Z,97118.38
2023-03-22T05:18:45.860Z,97118.60
2023-03-22T05:21:15.636Z,97117.45
2023-03-22T05:23:46.388Z,97119.23
2023-03-22T05:26:20.604Z,97119.47
2023-03-22T05:28:51.675Z,97123.33
2023-03-22T05:31:22.081Z,97128.29
2023-03-22T05:33:51.826Z,97131.26
2023-03-22T05:36:21.534Z,97133.14
2023-03-22T05:38:49.914Z,97134.79
2023-03-22T05:41:17.866Z,97131.91
2023-03-22T05:43:45.769Z,97132.80
2023-03-22T05:46:13.905Z,97133.98
2023-03-22T05:48:41.825Z,97141.46
2023-03-22T05:51:17.576Z,97143.16
2023-03-22T05:53:47.541Z,97147.58
2023-03-22T05:56:15.645Z,97151.69
2023-03-22T05:58:43.638Z,97157.94
2023-03-22T06:01:16.512Z,97158.84
2023-03-22T06:03:44.348Z,97156.59
2023-03-22T06:06:12.312Z,97154.73
2023-03-22T06:08:40.511Z,97158.17
2023-03-22T06:11:09.236Z,97159.45
2023-03-22T06:13:37.571Z,97158.65
2023-03-22T06:16:06.363Z,97161.02
2023-03-22T06:18:34.291Z,97163.90
2023-03-22T06:21:02.412Z,97165.48
2023-03-22T06:23:30.329Z,97166.78
2023-03-22T06:25:58.212Z,97168.55
2023-03-22T06:28:29.978Z,97168.81
2023-03-22T06:30:58.038Z,97173.66
2023-03-22T06:33:26.031Z,97172.97
2023-03-22T06:35:54.425Z,97176.30
2023-03-22T06:38:22.365Z,97179.61
2023-03-22T06:40:50.315Z,97179.83
2023-03-22T06:43:18.223Z,97181.16
2023-03-22T06:45:47.135Z,97181.64
2023-03-22T06:48:15.702Z,97185.45
2023-03-22T06:50:45.011Z,97189.60
2023-03-22T06:53:13.130Z,97190.24
2023-03-22T06:55:40.963Z,97193.52
2023-03-22T06:58:08.918Z,97188.66
2023-03-22T07:00:38.812Z,97193.89
2023-03-22T07:03:06.953Z,97196.88
2023-03-22T07:05:34.809Z,97193.86
2023-03-22T07:08:02.778Z,97197.73
2023-03-22T07:10:30.853Z,97198.21
2023-03-22T07:12:58.816Z,97196.44
2023-03-22T07:15:26.825Z,97196.69
2023-03-22T07:17:54.645Z,97197.61
2023-03-22T07:20:22.518Z,97198.95
2023-03-22T07:22:51.427Z,97198.70
2023-03-22T07:25:20.038Z,97199.51
2023-03-22T07:27:47.930Z,97204.15
2023-03-22T07:30:15.806Z,97200.20
2023-03-22T07:32:43.877Z,97202.93
2023-03-22T07:35:11.897Z,97202.00
2023-03-22T07:37:39.910Z,97200.20
2023-03-22T07:40:08.714Z,97198.81
2023-03-22T07:42:36.692Z,97202.08
2023-03-22T07:45:05.865Z,97198.60
2023-03-22T07:47:40.866Z,97199.83
2023-03-22T07:50:12.596Z,97199.33
2023-03-22T07:52:41.966Z,97200.58
2023-03-22T07:55:12.421Z,97203.55
2023-03-22T07:57:40.838Z,97202.66
2023-03-22T08:00:12.636Z,97201.90
2023-03-22T08:02:40.755Z,97202.86
2023-03-22T08:05:09.043Z,97200.31
2023-03-22T08:07:37.582Z,97199.91
2023-03-22T08:10:06.425Z,97199.23
2023-03-22T08:12:34.800Z,97200.20
2023-03-22T08:15:03.180Z,97202.98
2023-03-22T08:17:31.226Z,97203.27
2023-03-22T08:19:59.487Z,97207.96
2023-03-22T08:22:30.220Z,97207.08
2023-03-22T08:24:58.080Z,97206.66
2023-03-22T08:27:26.343Z,97208.56
2023-03-22T08:29:54.294Z,97207.83
2023-03-22T08:32:22.180Z,97210.79
2023-03-22T08:34:51.278Z,97214.04
2023-03-22T08:37:22.687Z,97215.42
2023-03-22T08:39:50.687Z,97212.79
2023-03-22T08:42:18.563Z,97213.66
2023-03-22T08:44:47.095Z,97216.18
2023-03-22T08:47:14.954Z,97216.06
2023-03-22T08:49:43.385Z,97213.64
2023-03-22T08:52:11.572Z,97213.42
2023-03-22T08:54:39.612Z,97213.13
2023-03-22T08:57:09.568Z,97216.17
2023-03-22T08:59:37.470Z,97214.45
2023-03-22T09:02:05.899Z,97209.70
2023-03-22T09:04:33.981Z,97213.59
2023-03-22T09:07:01.916Z,97208.36
2023-03-22T09:09:30.132Z,97215.30
2023-03-22T09:11:58.200Z,97212.04
2023-03-22T09:14:26.119Z,97209.10
2023-03-22T09:16:54.108Z,97205.75
2023-03-22T09:19:22.639Z,97200.23
2023-03-22T09:21:50.540Z,97202.37
2023-03-22T09:24:18.852Z,97204.03
2023-03-22T09:26:47.303Z,97200.08
2023-03-22T09:29:15.457Z,97192.77
2023-03-22T09:31:44.633Z,97194.48
2023-03-22T09:34:13.530Z,97195.01
2023-03-22T09:36:41.379Z,97194.77
2023-03-22T09:39:10.166Z,97189.91
2023-03-22T09:41:46.539Z,97191.27
2023-03-22T09:44:22.470Z,97186.54
2023-03-22T09:46:53.891Z,97181.44
2023-03-22T09:49:29.322Z,97176.58
2023-03-22T09:51:58.716Z,97177.63
2023-03-22T09:54:34.037Z,97175.89
2023-03-22T09:57:29.976Z,97179.47
2023-03-22T10:00:12.563Z,97181.91
2023-03-22T10:02:45.828Z,97175.88
2023-03-22T10:05:25.146Z,97177.40
2023-03-22T10:08:26.326Z,97177.27
2023-03-22T10:10:54.548Z,97177.30
2023-03-22T10:14:05.128Z,97175.84
2023-03-22T10:16:35.839Z,97170.65
2023-03-22T10:19:13.125Z,97169.04
2023-03-22T10:21:41.903Z,97168.73
2023-03-22T10:24:16.581Z,97167.38
2023-03-22T10:26:49.316Z,97165.08
2023-03-22T10:29:27.424Z,97160.88
2023-03-22T10:31:55.727Z,97157.63
2023-03-22T10:34:33.656Z,97154.69
2023-03-22T10:37:06.461Z,97155.74
2023-03-22T10:39:41.549Z,97151.38
2023-03-22T10:42:15.548Z,97149.64
2023-03-22T10:45:13.510Z,97149.80
2023-03-22T10:47:48.837Z,97153.26
2023-03-22T10:50:28.566Z,97148.77
2023-03-22T10:53:22.290Z,97145.05
2023-03-22T10:55:50.372Z,97143.08
2023-03-22T10:58:21.065Z,97143.22
2023-03-22T11:00:52.560Z,97140.48
2023-03-22T11:03:40.745Z,97135.55
2023-03-22T11:06:27.270Z,97131.34
2023-03-22T11:08:59.470Z,97130.38
2023-03-22T11:11:34.912Z,97129.32
2023-03-22T11:14:13.379Z,97127.02
2023-03-22T11:17:02.191Z,97122.00
2023-03-22T11:19:39.282Z,97122.34
2023-03-22T11:22:36.721Z,97119.36
2023-03-22T11:25:30.852Z,97111.75
2023-03-22T11:28:04.683Z,97112.36
2023-03-22T11:30:34.584Z,97113.41
2023-03-22T11:33:25.048Z,97110.88
2023-03-22T11:36:01.740Z,97104.63
2023-03-22T11:38:37.025Z,97107.91
2023-03-22T11:41:09.385Z,97107.92
2023-03-22T11:43:44.143Z,97101.20
2023-03-22T11:46:12.577Z,97104.92
2023-03-22T11:48:42.770Z,97100.77
2023-03-22T11:51:13.501Z,97097.41
2023-03-22T11:53:48.880Z,97098.45
2023-03-22T11:56:22.052Z,97094.52
2023-03-22T11:59:05.047Z,97090.20
2023-03-22T12:01:38.921Z,97082.77
2023-03-22T12:04:13.780Z,97080.64
2023-03-22T12:06:43.144Z,97078.58
2023-03-22T12:09:19.203Z,97078.29
2023-03-22T12:11:51.649Z,97082.41
2023-03-22T12:14:26.017Z,97079.69
2023-03-22T12:17:24.839Z,97075.81
2023-03-22T12:20:08.843Z,97073.08
2023-03-22T12:22:42.206Z,97075.48
2023-03-22T12:25:17.094Z,97075.92
2023-03-22T12:27:48.623Z,97074.14
2023-03-22T12:30:28.512Z,97072.58
2023-03-22T12:33:16.736Z,97070.36
2023-03-22T12:35:46.182Z,97067.75
2023-03-22T12:38:54.947Z,97067.93
2023-03-22T12:41:37.660Z,97067.63
2023-03-22T12:44:18.563Z,97062.92
2023-03-22T12:46:56.007Z,97061.52
2023-03-22T12:49:43.247Z,97061.84
2023-03-22T12:52:19.604Z,97060.70
2023-03-22T12:54:50.676Z,97055.71
2023-03-22T12:57:19.327Z,97054.63
2023-03-22T12:59:51.156Z,97054.55
2023-03-22T13:02:27.464Z,97054.60
2023-03-22T13:05:00.912Z,97049.78
2023-03-22T13:07:32.023Z,97050.54
2023-03-22T13:10:01.999Z,97049.63
2023-03-22T13:12:33.144Z,97048.26
2023-03-22T13:15:28.528Z,97051.06
2023-03-22T13:17:59.816Z,97052.38
2023-03-22T13:20:34.123Z,97048.83
2023-03-22T13:23:10.116Z,97048.05
2023-03-22T13:25:39.954Z,97048.34
2023-03-22T13:28:26.128Z,97048.86
2023-03-22T13:30:57.381Z,97044.80
2023-03-22T13:33:31.523Z,97044.48
2023-03-22T13:36:23.054Z,97045.27
2023-03-22T13:39:05.096Z,97045.67
2023-03-22T13:41:34.858Z,97043.55
2023-03-22T13:44:21.128Z,97043.20
2023-03-22T13:46:57.320Z,97042.55
2023-03-22T13:49:46.443Z,97043.98
2023-03-22T13:52:35.818Z,97043.31
2023-03-22T13:55:04.257Z,97041.09
2023-03-22T13:57:44.159Z,97039.05
2023-03-22T14:00:40.838Z,97039.37
2023-03-22T14:03:22.689Z,97040.29
2023-03-22T14:05:59.377Z,97042.57
2023-03-22T14:08:30.373Z,97041.81
2023-03-22T14:11:10.281Z,97045.89
2023-03-22T14:13:49.171Z,97045.34
2023-03-22T14:16:33.038Z,97042.88
2023-03-22T14:19:02.741Z,97044.38
2023-03-22T14:21:38.653Z,97044.06
